Terminal Aerodrome Forecast
Issued by NWS St Louis, MO

Home | Current Version | Previous Version | Graphics & Text | Print | Product List | Glossary On
Versions: 1 2 3 4 5 6 7 8 9 10 11 12 13 14 15 16 17 18 19 20 21 22 23 24 25 26 27 28 29 30 31 32
033
FTUS43 KLSX 290520
TAFSTL
TAF
KSTL 290520Z 2906/3012 07010KT P6SM OVC030
     FM291400 09012KT P6SM -SHRA OVC015
     FM291800 10013KT P6SM OVC015
     FM300000 10012KT P6SM OVC030
     FM300600 12011KT 5SM SHRA VCTS OVC015CB=

USA.gov is the U.S. government's official web portal to all federal, state and local government web resources and services.